Mineral Point, PA (15942)

11:17 AM EST on December 10, 2016 (GMT -0500)
Jackson Twp - Swigle Mountain Road | | Change Station

Elev 2277 ft 40.40 °N, 78.80 °W | Updated 3 seconds ago

Overcast
Overcast
21.4 °F
Feels Like 6 °F
N
19.6
Wind Variable Wind from West
Gusts 19.6 mph

Today
High -- | Low -- °F
--% Chance of Precip.
Yesterday
High -- | Low -- °F
Precip. -- in
Pressure 30.34 in
Visibility 3.0 miles
Clouds Overcast 1800 ft
Windchill 6 °F
Dew Point 17 °F
Humidity 83%
Rainfall 0.00 in
Snow Depth Not available.
7:27 AM 4:48 PM
Waxing Gibbous, 84% visible
SPECI KJST 101604Z AUTO 26010G18KT 3SM -SN OVC018 M07/M10 A3034 RMK AO2 P0000 T10671100 TSNO
Pressure 30.34 in
Visibility 3.0 miles
Clouds Overcast 1800 ft
Windchill 6 °F
Dew Point 17 °F
Humidity 83%
Rainfall 0.00 in
Snow Depth Not available.
7:27 AM 4:48 PM
Waxing Gibbous, 84% visible
SPECI KJST 101604Z AUTO 26010G18KT 3SM -SN OVC018 M07/M10 A3034 RMK AO2 P0000 T10671100 TSNO

10-Day Weather Forecast

Almanac

Astronomy

Dec. 10, 2016 Rise Set
Actual Time
Civil Twilight
Nautical Twilight
Astronomical Twilight
Moon
Length of Visible Light
Length of Day
Tomorrow will be .
, % of the Moon is Illuminated

Today's Extremes

State Highs State Lows

Community

WunderPhotos

Upload Photos

1,956,569 photos uploaded!

WunderBlog® & News

Nearby

Air Quality

  Air Quality AQ Index Pollutant
Not available.

Snow Depth

Station Depth Elevation

Earthquake Activity

City Distance Mag. Time & Date
Minimum magnitude displayed is 2.5.

Coastal Water Temperatures

Place Temperature

Stations

Nearby Weather Stations

Station Location Temp. Windchill Dew Point Humidity Wind Precip. Elev Updated Type
                   

Watches & Warnings

There are currently no watches in effect.